Terminal Aerodrome Forecast
Issued by NWS Columbia, SC

Home | Current Version | Previous Version | Text Only | Print | Product List | Glossary On
Versions: 1 2 3 4 5 6 7 8 9 10 11 12 13 14 15 16 17 18 19 20 21 22 23 24 25 26
000
FTUS42 KCAE 180500
TAFCAE
TAF
KCAE 180520Z 1806/1906 05006KT P6SM SCT050 OVC250
     FM181300 04010G16KT P6SM BKN025 OVC050
     FM182200 04012G18KT 5SM -RA OVC020
     FM190300 04014G20KT 3SM RA OVC009=

USA.gov is the U.S. government's official web portal to all federal, state and local government web resources and services.